TAF Text Data
IDs:
Format:
Raw Decoded Include METAR

Data at: 0245 UTC 29 Nov 2020

KANB 282338Z 2900/2924 VRB03KT P6SM BKN250
  FM291400 09005KT P6SM OVC035
  FM291500 11006KT P6SM OVC017
  FM291800 13007KT 6SM SHRA BR OVC014
  PROB30 2918/2919 4SM TSRA BR OVC010CB
  FM291900 11008KT 6SM SHRA BR OVC007
  PROB30 2919/2924 2SM TSRA BR OVC003CB